sensor_id;sensor_type;location;lat;lon;timestamp;P1;durP1;ratioP1;P2;durP2;ratioP2
5730;SDS011;2890;51.950;7.668;2022-09-30T00:02:17;9.27;;;8.37;;
5730;SDS011;2890;51.950;7.668;2022-09-30T00:04:44;11.57;;;9.47;;
5730;SDS011;2890;51.950;7.668;2022-09-30T00:07:11;10.80;;;9.20;;
5730;SDS011;2890;51.950;7.668;2022-09-30T00:09:38;12.03;;;9.03;;
5730;SDS011;2890;51.950;7.668;2022-09-30T00:12:04;11.93;;;9.73;;
5730;SDS011;2890;51.950;7.668;2022-09-30T00:14:31;9.90;;;8.87;;
5730;SDS011;2890;51.950;7.668;2022-09-30T00:16:58;10.33;;;9.03;;
5730;SDS011;2890;51.950;7.668;2022-09-30T00:19:26;10.00;;;8.60;;
5730;SDS011;2890;51.950;7.668;2022-09-30T00:21:53;10.80;;;9.33;;
5730;SDS011;2890;51.950;7.668;2022-09-30T00:24:19;8.93;;;8.03;;
5730;SDS011;2890;51.950;7.668;2022-09-30T00:26:46;13.40;;;9.60;;
5730;SDS011;2890;51.950;7.668;2022-09-30T00:29:13;12.33;;;8.83;;
5730;SDS011;2890;51.950;7.668;2022-09-30T00:31:39;13.73;;;8.70;;
5730;SDS011;2890;51.950;7.668;2022-09-30T00:34:06;8.90;;;8.00;;
5730;SDS011;2890;51.950;7.668;2022-09-30T00:36:37;10.93;;;7.97;;
5730;SDS011;2890;51.950;7.668;2022-09-30T00:39:07;9.80;;;7.97;;
5730;SDS011;2890;51.950;7.668;2022-09-30T00:41:36;9.93;;;7.90;;
5730;SDS011;2890;51.950;7.668;2022-09-30T00:47:03;8.63;;;7.60;;
5730;SDS011;2890;51.950;7.668;2022-09-30T00:49:31;9.43;;;7.70;;
5730;SDS011;2890;51.950;7.668;2022-09-30T00:52:00;8.23;;;7.40;;
5730;SDS011;2890;51.950;7.668;2022-09-30T00:54:27;9.60;;;8.37;;
5730;SDS011;2890;51.950;7.668;2022-09-30T00:56:58;11.03;;;8.47;;
5730;SDS011;2890;51.950;7.668;2022-09-30T00:59:28;11.67;;;8.57;;
5730;SDS011;2890;51.950;7.668;2022-09-30T01:01:58;10.07;;;9.07;;
5730;SDS011;2890;51.950;7.668;2022-09-30T01:04:26;9.47;;;8.47;;
5730;SDS011;2890;51.950;7.668;2022-09-30T01:06:59;11.57;;;9.67;;
5730;SDS011;2890;51.950;7.668;2022-09-30T01:09:28;9.50;;;8.53;;
5730;SDS011;2890;51.950;7.668;2022-09-30T01:11:58;10.03;;;8.50;;
5730;SDS011;2890;51.950;7.668;2022-09-30T01:14:28;10.07;;;9.00;;
5730;SDS011;2890;51.950;7.668;2022-09-30T01:16:57;9.00;;;8.10;;
5730;SDS011;2890;51.950;7.668;2022-09-30T01:22:40;11.60;;;8.57;;
5730;SDS011;2890;51.950;7.668;2022-09-30T01:25:35;9.97;;;8.97;;
5730;SDS011;2890;51.950;7.668;2022-09-30T01:31:25;10.50;;;8.77;;
5730;SDS011;2890;51.950;7.668;2022-09-30T01:33:59;9.57;;;8.67;;
5730;SDS011;2890;51.950;7.668;2022-09-30T01:36:37;10.57;;;9.47;;
5730;SDS011;2890;51.950;7.668;2022-09-30T01:39:19;12.23;;;9.07;;
5730;SDS011;2890;51.950;7.668;2022-09-30T01:41:54;10.97;;;9.10;;
5730;SDS011;2890;51.950;7.668;2022-09-30T01:44:32;10.20;;;9.10;;
5730;SDS011;2890;51.950;7.668;2022-09-30T01:47:07;9.00;;;8.03;;
5730;SDS011;2890;51.950;7.668;2022-09-30T01:49:40;13.33;;;9.30;;
5730;SDS011;2890;51.950;7.668;2022-09-30T01:52:12;12.90;;;9.40;;
5730;SDS011;2890;51.950;7.668;2022-09-30T01:54:42;9.80;;;8.80;;
5730;SDS011;2890;51.950;7.668;2022-09-30T01:57:17;10.13;;;9.07;;
5730;SDS011;2890;51.950;7.668;2022-09-30T01:59:49;10.53;;;9.47;;
5730;SDS011;2890;51.950;7.668;2022-09-30T02:02:22;10.70;;;9.60;;
5730;SDS011;2890;51.950;7.668;2022-09-30T02:04:51;16.77;;;9.67;;
5730;SDS011;2890;51.950;7.668;2022-09-30T02:07:22;10.20;;;9.10;;
5730;SDS011;2890;51.950;7.668;2022-09-30T02:09:54;15.10;;;9.50;;
5730;SDS011;2890;51.950;7.668;2022-09-30T02:12:25;12.63;;;10.40;;
5730;SDS011;2890;51.950;7.668;2022-09-30T02:14:56;12.60;;;9.20;;
5730;SDS011;2890;51.950;7.668;2022-09-30T02:17:29;10.23;;;9.03;;
5730;SDS011;2890;51.950;7.668;2022-09-30T02:19:59;11.53;;;9.33;;
5730;SDS011;2890;51.950;7.668;2022-09-30T02:22:30;10.63;;;9.17;;
5730;SDS011;2890;51.950;7.668;2022-09-30T02:25:02;10.10;;;9.10;;
5730;SDS011;2890;51.950;7.668;2022-09-30T02:27:33;10.63;;;9.60;;
5730;SDS011;2890;51.950;7.668;2022-09-30T02:30:07;11.03;;;9.93;;
5730;SDS011;2890;51.950;7.668;2022-09-30T02:32:40;11.57;;;9.50;;
5730;SDS011;2890;51.950;7.668;2022-09-30T02:35:13;11.03;;;9.80;;
5730;SDS011;2890;51.950;7.668;2022-09-30T02:37:45;10.70;;;8.33;;
5730;SDS011;2890;51.950;7.668;2022-09-30T02:40:18;9.73;;;8.73;;
5730;SDS011;2890;51.950;7.668;2022-09-30T02:42:50;12.43;;;9.57;;
5730;SDS011;2890;51.950;7.668;2022-09-30T02:45:18;9.67;;;8.73;;
5730;SDS011;2890;51.950;7.668;2022-09-30T02:47:53;10.63;;;8.70;;
5730;SDS011;2890;51.950;7.668;2022-09-30T02:50:29;10.63;;;9.43;;
5730;SDS011;2890;51.950;7.668;2022-09-30T02:53:02;10.67;;;8.77;;
5730;SDS011;2890;51.950;7.668;2022-09-30T02:55:48;11.17;;;9.47;;
5730;SDS011;2890;51.950;7.668;2022-09-30T02:58:25;11.00;;;9.37;;
5730;SDS011;2890;51.950;7.668;2022-09-30T03:00:54;11.97;;;10.77;;
5730;SDS011;2890;51.950;7.668;2022-09-30T03:03:24;9.17;;;8.03;;
5730;SDS011;2890;51.950;7.668;2022-09-30T03:05:53;11.13;;;9.17;;
5730;SDS011;2890;51.950;7.668;2022-09-30T03:08:20;10.97;;;9.17;;
5730;SDS011;2890;51.950;7.668;2022-09-30T03:10:47;12.23;;;8.87;;
5730;SDS011;2890;51.950;7.668;2022-09-30T03:13:26;10.50;;;8.30;;
5730;SDS011;2890;51.950;7.668;2022-09-30T03:16:10;11.30;;;9.83;;
5730;SDS011;2890;51.950;7.668;2022-09-30T03:18:52;10.27;;;8.33;;
5730;SDS011;2890;51.950;7.668;2022-09-30T03:21:38;9.50;;;8.50;;
5730;SDS011;2890;51.950;7.668;2022-09-30T03:27:11;9.97;;;8.97;;
5730;SDS011;2890;51.950;7.668;2022-09-30T03:29:49;11.13;;;8.60;;
5730;SDS011;2890;51.950;7.668;2022-09-30T03:32:29;10.30;;;8.60;;
5730;SDS011;2890;51.950;7.668;2022-09-30T03:35:07;10.10;;;8.43;;
5730;SDS011;2890;51.950;7.668;2022-09-30T03:37:44;10.57;;;8.87;;
5730;SDS011;2890;51.950;7.668;2022-09-30T03:40:17;9.80;;;8.03;;
5730;SDS011;2890;51.950;7.668;2022-09-30T03:42:53;10.60;;;8.00;;
5730;SDS011;2890;51.950;7.668;2022-09-30T03:45:24;9.70;;;8.67;;
5730;SDS011;2890;51.950;7.668;2022-09-30T03:47:57;9.13;;;8.03;;
5730;SDS011;2890;51.950;7.668;2022-09-30T03:50:29;11.30;;;8.73;;
5730;SDS011;2890;51.950;7.668;2022-09-30T03:52:57;9.60;;;8.07;;
5730;SDS011;2890;51.950;7.668;2022-09-30T03:55:24;8.87;;;7.97;;
5730;SDS011;2890;51.950;7.668;2022-09-30T03:57:53;10.43;;;8.17;;
5730;SDS011;2890;51.950;7.668;2022-09-30T04:00:21;12.27;;;9.80;;
5730;SDS011;2890;51.950;7.668;2022-09-30T04:02:48;10.00;;;8.33;;
5730;SDS011;2890;51.950;7.668;2022-09-30T04:05:15;10.00;;;8.13;;
5730;SDS011;2890;51.950;7.668;2022-09-30T04:07:43;10.23;;;8.93;;
5730;SDS011;2890;51.950;7.668;2022-09-30T04:10:11;9.20;;;8.30;;
5730;SDS011;2890;51.950;7.668;2022-09-30T04:12:38;11.90;;;8.50;;
5730;SDS011;2890;51.950;7.668;2022-09-30T04:15:05;9.33;;;8.17;;
5730;SDS011;2890;51.950;7.668;2022-09-30T04:17:32;9.43;;;8.37;;
5730;SDS011;2890;51.950;7.668;2022-09-30T04:19:59;11.93;;;8.63;;
5730;SDS011;2890;51.950;7.668;2022-09-30T04:22:26;11.37;;;8.13;;
5730;SDS011;2890;51.950;7.668;2022-09-30T04:24:54;9.13;;;8.27;;
5730;SDS011;2890;51.950;7.668;2022-09-30T04:27:20;10.10;;;8.43;;
5730;SDS011;2890;51.950;7.668;2022-09-30T04:29:47;13.23;;;8.73;;
5730;SDS011;2890;51.950;7.668;2022-09-30T04:32:14;11.17;;;9.40;;
5730;SDS011;2890;51.950;7.668;2022-09-30T04:34:41;12.60;;;9.43;;
5730;SDS011;2890;51.950;7.668;2022-09-30T04:37:07;9.13;;;8.20;;
5730;SDS011;2890;51.950;7.668;2022-09-30T04:39:34;10.07;;;8.20;;
5730;SDS011;2890;51.950;7.668;2022-09-30T04:42:02;10.17;;;8.20;;
5730;SDS011;2890;51.950;7.668;2022-09-30T04:44:30;9.87;;;7.63;;
5730;SDS011;2890;51.950;7.668;2022-09-30T04:46:57;8.53;;;7.63;;
5730;SDS011;2890;51.950;7.668;2022-09-30T04:49:24;8.17;;;7.33;;
5730;SDS011;2890;51.950;7.668;2022-09-30T04:51:51;12.47;;;8.20;;
5730;SDS011;2890;51.950;7.668;2022-09-30T04:54:18;8.37;;;7.50;;
5730;SDS011;2890;51.950;7.668;2022-09-30T04:56:44;11.53;;;8.57;;
5730;SDS011;2890;51.950;7.668;2022-09-30T04:59:13;9.90;;;7.87;;
5730;SDS011;2890;51.950;7.668;2022-09-30T05:01:39;9.33;;;8.00;;
5730;SDS011;2890;51.950;7.668;2022-09-30T05:04:08;9.63;;;7.83;;
5730;SDS011;2890;51.950;7.668;2022-09-30T05:06:36;9.83;;;8.07;;
5730;SDS011;2890;51.950;7.668;2022-09-30T05:09:03;12.10;;;7.83;;
5730;SDS011;2890;51.950;7.668;2022-09-30T05:11:30;9.33;;;8.33;;
5730;SDS011;2890;51.950;7.668;2022-09-30T05:13:57;10.63;;;9.00;;
5730;SDS011;2890;51.950;7.668;2022-09-30T05:16:26;10.77;;;7.47;;
5730;SDS011;2890;51.950;7.668;2022-09-30T05:18:53;12.70;;;8.30;;
5730;SDS011;2890;51.950;7.668;2022-09-30T05:21:19;9.03;;;8.13;;
5730;SDS011;2890;51.950;7.668;2022-09-30T05:23:46;9.40;;;7.23;;
5730;SDS011;2890;51.950;7.668;2022-09-30T05:26:13;9.67;;;7.87;;
5730;SDS011;2890;51.950;7.668;2022-09-30T05:28:40;11.53;;;7.80;;
5730;SDS011;2890;51.950;7.668;2022-09-30T05:31:07;9.57;;;6.77;;
5730;SDS011;2890;51.950;7.668;2022-09-30T05:33:37;11.20;;;7.50;;
5730;SDS011;2890;51.950;7.668;2022-09-30T05:36:06;9.80;;;7.60;;
5730;SDS011;2890;51.950;7.668;2022-09-30T05:38:34;9.43;;;7.87;;
5730;SDS011;2890;51.950;7.668;2022-09-30T05:41:04;8.33;;;6.80;;
5730;SDS011;2890;51.950;7.668;2022-09-30T05:43:35;9.00;;;7.60;;
5730;SDS011;2890;51.950;7.668;2022-09-30T05:46:03;9.03;;;8.07;;
5730;SDS011;2890;51.950;7.668;2022-09-30T05:48:29;10.07;;;7.67;;
5730;SDS011;2890;51.950;7.668;2022-09-30T05:50:58;8.37;;;7.57;;
5730;SDS011;2890;51.950;7.668;2022-09-30T05:53:25;10.20;;;7.67;;
5730;SDS011;2890;51.950;7.668;2022-09-30T05:55:53;8.23;;;7.43;;
5730;SDS011;2890;51.950;7.668;2022-09-30T05:58:19;9.07;;;8.00;;
5730;SDS011;2890;51.950;7.668;2022-09-30T06:00:47;12.90;;;7.50;;
5730;SDS011;2890;51.950;7.668;2022-09-30T06:03:15;8.43;;;7.63;;
5730;SDS011;2890;51.950;7.668;2022-09-30T06:05:42;9.87;;;7.87;;
5730;SDS011;2890;51.950;7.668;2022-09-30T06:08:11;10.57;;;7.60;;
5730;SDS011;2890;51.950;7.668;2022-09-30T06:10:39;9.57;;;7.17;;
5730;SDS011;2890;51.950;7.668;2022-09-30T06:13:07;9.13;;;7.30;;
5730;SDS011;2890;51.950;7.668;2022-09-30T06:15:34;12.70;;;8.43;;
5730;SDS011;2890;51.950;7.668;2022-09-30T06:18:02;14.40;;;7.43;;
5730;SDS011;2890;51.950;7.668;2022-09-30T06:20:29;9.47;;;7.90;;
5730;SDS011;2890;51.950;7.668;2022-09-30T06:22:57;9.17;;;7.67;;
5730;SDS011;2890;51.950;7.668;2022-09-30T06:25:26;9.43;;;7.70;;
5730;SDS011;2890;51.950;7.668;2022-09-30T06:27:53;11.13;;;7.70;;
5730;SDS011;2890;51.950;7.668;2022-09-30T06:30:20;11.77;;;7.93;;
5730;SDS011;2890;51.950;7.668;2022-09-30T06:32:47;8.77;;;7.87;;
5730;SDS011;2890;51.950;7.668;2022-09-30T06:35:13;13.27;;;7.23;;
5730;SDS011;2890;51.950;7.668;2022-09-30T06:37:40;9.10;;;6.97;;
5730;SDS011;2890;51.950;7.668;2022-09-30T06:40:10;7.63;;;6.77;;
5730;SDS011;2890;51.950;7.668;2022-09-30T06:42:38;14.87;;;7.53;;
5730;SDS011;2890;51.950;7.668;2022-09-30T06:45:06;8.87;;;6.97;;
5730;SDS011;2890;51.950;7.668;2022-09-30T06:47:34;7.70;;;6.63;;
5730;SDS011;2890;51.950;7.668;2022-09-30T06:50:00;8.30;;;7.20;;
5730;SDS011;2890;51.950;7.668;2022-09-30T06:52:27;9.50;;;7.03;;
5730;SDS011;2890;51.950;7.668;2022-09-30T06:54:54;7.53;;;6.30;;
5730;SDS011;2890;51.950;7.668;2022-09-30T06:57:21;7.03;;;5.97;;
5730;SDS011;2890;51.950;7.668;2022-09-30T06:59:50;8.20;;;6.07;;
5730;SDS011;2890;51.950;7.668;2022-09-30T07:02:17;8.63;;;6.43;;
5730;SDS011;2890;51.950;7.668;2022-09-30T07:04:44;6.23;;;5.63;;
5730;SDS011;2890;51.950;7.668;2022-09-30T07:07:12;7.28;;;5.57;;
5730;SDS011;2890;51.950;7.668;2022-09-30T07:09:38;12.73;;;5.97;;
5730;SDS011;2890;51.950;7.668;2022-09-30T07:12:07;7.88;;;5.38;;
5730;SDS011;2890;51.950;7.668;2022-09-30T07:14:33;7.10;;;5.30;;
5730;SDS011;2890;51.950;7.668;2022-09-30T07:17:02;6.82;;;5.28;;
5730;SDS011;2890;51.950;7.668;2022-09-30T07:19:30;9.15;;;5.63;;
5730;SDS011;2890;51.950;7.668;2022-09-30T07:21:58;8.50;;;4.82;;
5730;SDS011;2890;51.950;7.668;2022-09-30T07:24:45;8.27;;;5.47;;
5730;SDS011;2890;51.950;7.668;2022-09-30T07:27:12;7.15;;;4.90;;
5730;SDS011;2890;51.950;7.668;2022-09-30T07:29:39;11.13;;;5.50;;
5730;SDS011;2890;51.950;7.668;2022-09-30T07:32:08;6.32;;;5.40;;
5730;SDS011;2890;51.950;7.668;2022-09-30T07:34:35;7.97;;;5.55;;
5730;SDS011;2890;51.950;7.668;2022-09-30T07:37:03;7.95;;;6.03;;
5730;SDS011;2890;51.950;7.668;2022-09-30T07:39:29;5.88;;;5.13;;
5730;SDS011;2890;51.950;7.668;2022-09-30T07:41:56;9.50;;;5.65;;
5730;SDS011;2890;51.950;7.668;2022-09-30T07:44:23;8.55;;;5.28;;
5730;SDS011;2890;51.950;7.668;2022-09-30T07:46:53;6.47;;;5.35;;
5730;SDS011;2890;51.950;7.668;2022-09-30T07:49:22;15.00;;;5.75;;
5730;SDS011;2890;51.950;7.668;2022-09-30T07:51:50;7.80;;;5.90;;
5730;SDS011;2890;51.950;7.668;2022-09-30T07:54:18;8.35;;;5.97;;
5730;SDS011;2890;51.950;7.668;2022-09-30T07:56:46;9.88;;;6.80;;
5730;SDS011;2890;51.950;7.668;2022-09-30T07:59:16;13.50;;;6.65;;
5730;SDS011;2890;51.950;7.668;2022-09-30T08:01:43;8.30;;;6.32;;
5730;SDS011;2890;51.950;7.668;2022-09-30T08:04:11;12.45;;;6.43;;
5730;SDS011;2890;51.950;7.668;2022-09-30T08:06:41;10.02;;;6.72;;
5730;SDS011;2890;51.950;7.668;2022-09-30T08:09:09;9.18;;;6.57;;
5730;SDS011;2890;51.950;7.668;2022-09-30T08:11:36;8.07;;;6.32;;
5730;SDS011;2890;51.950;7.668;2022-09-30T08:14:05;7.15;;;6.28;;
5730;SDS011;2890;51.950;7.668;2022-09-30T08:16:32;10.30;;;6.45;;
5730;SDS011;2890;51.950;7.668;2022-09-30T08:19:00;8.93;;;6.47;;
5730;SDS011;2890;51.950;7.668;2022-09-30T08:21:27;7.88;;;6.55;;
5730;SDS011;2890;51.950;7.668;2022-09-30T08:23:56;9.13;;;6.05;;
5730;SDS011;2890;51.950;7.668;2022-09-30T08:26:23;7.72;;;6.28;;
5730;SDS011;2890;51.950;7.668;2022-09-30T08:28:50;7.22;;;6.43;;
5730;SDS011;2890;51.950;7.668;2022-09-30T08:31:18;9.18;;;6.32;;
5730;SDS011;2890;51.950;7.668;2022-09-30T08:33:45;10.10;;;6.57;;
5730;SDS011;2890;51.950;7.668;2022-09-30T08:36:13;7.60;;;5.78;;
5730;SDS011;2890;51.950;7.668;2022-09-30T08:38:41;7.97;;;5.85;;
5730;SDS011;2890;51.950;7.668;2022-09-30T08:41:13;9.35;;;6.63;;
5730;SDS011;2890;51.950;7.668;2022-09-30T08:43:53;8.43;;;6.25;;
5730;SDS011;2890;51.950;7.668;2022-09-30T08:46:34;8.90;;;6.55;;
5730;SDS011;2890;51.950;7.668;2022-09-30T08:49:10;8.00;;;5.85;;
5730;SDS011;2890;51.950;7.668;2022-09-30T08:51:50;7.50;;;6.10;;
5730;SDS011;2890;51.950;7.668;2022-09-30T08:54:19;6.60;;;5.90;;
5730;SDS011;2890;51.950;7.668;2022-09-30T08:56:52;12.10;;;6.55;;
5730;SDS011;2890;51.950;7.668;2022-09-30T08:59:22;8.48;;;5.57;;
5730;SDS011;2890;51.950;7.668;2022-09-30T09:01:57;6.28;;;5.65;;
5730;SDS011;2890;51.950;7.668;2022-09-30T09:04:27;6.80;;;6.00;;
5730;SDS011;2890;51.950;7.668;2022-09-30T09:06:55;8.13;;;5.45;;
5730;SDS011;2890;51.950;7.668;2022-09-30T09:09:33;7.45;;;6.13;;
5730;SDS011;2890;51.950;7.668;2022-09-30T09:12:13;7.53;;;5.95;;
5730;SDS011;2890;51.950;7.668;2022-09-30T09:14:50;6.03;;;5.40;;
5730;SDS011;2890;51.950;7.668;2022-09-30T09:17:26;7.80;;;5.70;;
5730;SDS011;2890;51.950;7.668;2022-09-30T09:20:02;7.47;;;6.18;;
5730;SDS011;2890;51.950;7.668;2022-09-30T09:22:33;7.78;;;6.22;;
5730;SDS011;2890;51.950;7.668;2022-09-30T09:25:02;9.05;;;6.38;;
5730;SDS011;2890;51.950;7.668;2022-09-30T09:27:34;8.10;;;5.93;;
5730;SDS011;2890;51.950;7.668;2022-09-30T09:30:08;9.25;;;6.07;;
5730;SDS011;2890;51.950;7.668;2022-09-30T09:32:37;7.57;;;5.88;;
5730;SDS011;2890;51.950;7.668;2022-09-30T09:35:08;9.98;;;6.30;;
5730;SDS011;2890;51.950;7.668;2022-09-30T09:37:43;9.73;;;6.63;;
5730;SDS011;2890;51.950;7.668;2022-09-30T09:40:41;7.40;;;5.80;;
5730;SDS011;2890;51.950;7.668;2022-09-30T09:43:24;8.40;;;6.18;;
5730;SDS011;2890;51.950;7.668;2022-09-30T09:45:58;8.15;;;5.65;;
5730;SDS011;2890;51.950;7.668;2022-09-30T09:48:29;7.03;;;6.13;;
5730;SDS011;2890;51.950;7.668;2022-09-30T09:51:01;9.32;;;5.95;;
5730;SDS011;2890;51.950;7.668;2022-09-30T09:53:39;10.82;;;6.25;;
5730;SDS011;2890;51.950;7.668;2022-09-30T09:56:11;7.93;;;5.50;;
5730;SDS011;2890;51.950;7.668;2022-09-30T10:04:25;7.03;;;6.05;;
5730;SDS011;2890;51.950;7.668;2022-09-30T10:06:55;10.50;;;6.80;;
5730;SDS011;2890;51.950;7.668;2022-09-30T10:09:25;8.25;;;5.80;;
5730;SDS011;2890;51.950;7.668;2022-09-30T10:14:55;8.95;;;5.72;;
5730;SDS011;2890;51.950;7.668;2022-09-30T10:17:25;7.60;;;5.47;;
5730;SDS011;2890;51.950;7.668;2022-09-30T10:19:56;6.93;;;5.53;;
5730;SDS011;2890;51.950;7.668;2022-09-30T10:22:26;7.30;;;5.00;;
5730;SDS011;2890;51.950;7.668;2022-09-30T10:25:15;7.95;;;4.82;;
5730;SDS011;2890;51.950;7.668;2022-09-30T10:27:53;7.32;;;5.63;;
5730;SDS011;2890;51.950;7.668;2022-09-30T10:30:34;5.40;;;4.85;;
5730;SDS011;2890;51.950;7.668;2022-09-30T10:33:09;6.13;;;5.22;;
5730;SDS011;2890;51.950;7.668;2022-09-30T10:35:51;6.88;;;5.40;;
5730;SDS011;2890;51.950;7.668;2022-09-30T10:38:20;6.10;;;4.85;;
5730;SDS011;2890;51.950;7.668;2022-09-30T10:40:49;9.23;;;5.38;;
5730;SDS011;2890;51.950;7.668;2022-09-30T10:43:18;6.15;;;5.55;;
5730;SDS011;2890;51.950;7.668;2022-09-30T10:45:58;7.70;;;5.30;;
5730;SDS011;2890;51.950;7.668;2022-09-30T10:48:28;11.15;;;6.20;;
5730;SDS011;2890;51.950;7.668;2022-09-30T10:50:59;6.72;;;5.50;;
5730;SDS011;2890;51.950;7.668;2022-09-30T10:53:26;6.80;;;5.80;;
5730;SDS011;2890;51.950;7.668;2022-09-30T10:55:55;6.20;;;5.65;;
5730;SDS011;2890;51.950;7.668;2022-09-30T10:58:28;6.25;;;5.65;;
5730;SDS011;2890;51.950;7.668;2022-09-30T11:01:14;6.72;;;5.85;;
5730;SDS011;2890;51.950;7.668;2022-09-30T11:03:48;8.82;;;6.03;;
5730;SDS011;2890;51.950;7.668;2022-09-30T11:06:16;7.10;;;6.10;;
5730;SDS011;2890;51.950;7.668;2022-09-30T11:08:46;8.93;;;6.70;;
5730;SDS011;2890;51.950;7.668;2022-09-30T11:11:19;21.67;;;7.40;;
5730;SDS011;2890;51.950;7.668;2022-09-30T11:13:53;9.20;;;7.63;;
5730;SDS011;2890;51.950;7.668;2022-09-30T11:16:25;7.38;;;6.70;;
5730;SDS011;2890;51.950;7.668;2022-09-30T11:18:59;8.05;;;6.53;;
5730;SDS011;2890;51.950;7.668;2022-09-30T11:21:32;9.65;;;7.35;;
5730;SDS011;2890;51.950;7.668;2022-09-30T11:24:10;7.90;;;7.15;;
5730;SDS011;2890;51.950;7.668;2022-09-30T11:26:47;7.97;;;6.85;;
5730;SDS011;2890;51.950;7.668;2022-09-30T11:29:26;8.32;;;7.28;;
5730;SDS011;2890;51.950;7.668;2022-09-30T11:32:11;8.23;;;6.72;;
5730;SDS011;2890;51.950;7.668;2022-09-30T11:34:50;8.23;;;7.25;;
5730;SDS011;2890;51.950;7.668;2022-09-30T11:37:26;11.32;;;7.50;;
5730;SDS011;2890;51.950;7.668;2022-09-30T11:40:13;8.73;;;6.50;;
5730;SDS011;2890;51.950;7.668;2022-09-30T11:42:56;7.07;;;6.32;;
5730;SDS011;2890;51.950;7.668;2022-09-30T11:45:30;6.97;;;6.18;;
5730;SDS011;2890;51.950;7.668;2022-09-30T11:48:21;7.93;;;5.82;;
5730;SDS011;2890;51.950;7.668;2022-09-30T11:51:00;7.15;;;6.43;;
5730;SDS011;2890;51.950;7.668;2022-09-30T11:53:36;8.25;;;6.30;;
5730;SDS011;2890;51.950;7.668;2022-09-30T11:56:14;7.10;;;6.13;;
5730;SDS011;2890;51.950;7.668;2022-09-30T11:58:54;7.05;;;6.03;;
5730;SDS011;2890;51.950;7.668;2022-09-30T12:01:28;8.27;;;6.20;;
5730;SDS011;2890;51.950;7.668;2022-09-30T12:04:00;9.80;;;6.65;;
5730;SDS011;2890;51.950;7.668;2022-09-30T12:06:32;6.22;;;5.28;;
5730;SDS011;2890;51.950;7.668;2022-09-30T12:09:03;6.07;;;5.13;;
5730;SDS011;2890;51.950;7.668;2022-09-30T12:11:39;7.30;;;4.97;;
5730;SDS011;2890;51.950;7.668;2022-09-30T12:14:11;8.02;;;5.75;;
5730;SDS011;2890;51.950;7.668;2022-09-30T12:16:43;8.45;;;5.78;;
5730;SDS011;2890;51.950;7.668;2022-09-30T12:19:14;5.55;;;4.93;;
5730;SDS011;2890;51.950;7.668;2022-09-30T12:21:46;7.57;;;4.90;;
5730;SDS011;2890;51.950;7.668;2022-09-30T12:24:19;5.68;;;4.38;;
5730;SDS011;2890;51.950;7.668;2022-09-30T12:26:50;5.90;;;4.75;;
5730;SDS011;2890;51.950;7.668;2022-09-30T12:29:19;6.85;;;4.30;;
5730;SDS011;2890;51.950;7.668;2022-09-30T12:32:17;9.43;;;5.15;;
5730;SDS011;2890;51.950;7.668;2022-09-30T12:35:00;5.00;;;4.22;;
5730;SDS011;2890;51.950;7.668;2022-09-30T12:37:40;4.82;;;4.38;;
5730;SDS011;2890;51.950;7.668;2022-09-30T12:40:23;6.13;;;4.40;;
5730;SDS011;2890;51.950;7.668;2022-09-30T12:43:02;6.85;;;5.07;;
5730;SDS011;2890;51.950;7.668;2022-09-30T12:45:51;5.85;;;4.70;;
5730;SDS011;2890;51.950;7.668;2022-09-30T12:48:27;5.00;;;4.38;;
5730;SDS011;2890;51.950;7.668;2022-09-30T12:50:59;4.97;;;4.50;;
5730;SDS011;2890;51.950;7.668;2022-09-30T12:53:27;5.03;;;3.72;;
5730;SDS011;2890;51.950;7.668;2022-09-30T12:56:01;4.88;;;4.38;;
5730;SDS011;2890;51.950;7.668;2022-09-30T12:58:30;5.40;;;4.25;;
5730;SDS011;2890;51.950;7.668;2022-09-30T13:01:03;4.93;;;4.03;;
5730;SDS011;2890;51.950;7.668;2022-09-30T13:03:43;4.45;;;4.10;;
5730;SDS011;2890;51.950;7.668;2022-09-30T13:06:14;5.28;;;3.55;;
5730;SDS011;2890;51.950;7.668;2022-09-30T13:08:43;4.68;;;3.47;;
5730;SDS011;2890;51.950;7.668;2022-09-30T13:11:35;3.80;;;3.50;;
5730;SDS011;2890;51.950;7.668;2022-09-30T13:16:58;3.50;;;3.20;;
5730;SDS011;2890;51.950;7.668;2022-09-30T13:19:48;4.50;;;3.25;;
5730;SDS011;2890;51.950;7.668;2022-09-30T13:25:22;4.38;;;3.60;;
5730;SDS011;2890;51.950;7.668;2022-09-30T13:27:50;6.45;;;3.30;;
5730;SDS011;2890;51.950;7.668;2022-09-30T13:36:17;2.88;;;2.65;;
5730;SDS011;2890;51.950;7.668;2022-09-30T13:39:06;3.42;;;3.10;;
5730;SDS011;2890;51.950;7.668;2022-09-30T13:41:42;3.20;;;2.80;;
5730;SDS011;2890;51.950;7.668;2022-09-30T13:44:13;4.68;;;3.58;;
5730;SDS011;2890;51.950;7.668;2022-09-30T13:46:45;3.50;;;3.20;;
5730;SDS011;2890;51.950;7.668;2022-09-30T13:49:17;3.65;;;3.10;;
5730;SDS011;2890;51.950;7.668;2022-09-30T13:51:49;2.70;;;2.47;;
5730;SDS011;2890;51.950;7.668;2022-09-30T13:54:20;3.88;;;2.92;;
5730;SDS011;2890;51.950;7.668;2022-09-30T13:56:51;6.18;;;3.53;;
5730;SDS011;2890;51.950;7.668;2022-09-30T13:59:24;3.60;;;2.95;;
5730;SDS011;2890;51.950;7.668;2022-09-30T14:02:23;3.58;;;2.47;;
5730;SDS011;2890;51.950;7.668;2022-09-30T14:05:19;2.95;;;2.55;;
5730;SDS011;2890;51.950;7.668;2022-09-30T14:11:16;4.97;;;3.10;;
5730;SDS011;2890;51.950;7.668;2022-09-30T14:13:55;3.45;;;2.90;;
5730;SDS011;2890;51.950;7.668;2022-09-30T14:16:44;2.70;;;2.50;;
5730;SDS011;2890;51.950;7.668;2022-09-30T14:19:35;4.57;;;2.95;;
5730;SDS011;2890;51.950;7.668;2022-09-30T14:22:11;4.30;;;3.13;;
5730;SDS011;2890;51.950;7.668;2022-09-30T14:24:40;3.70;;;2.83;;
5730;SDS011;2890;51.950;7.668;2022-09-30T14:30:03;4.93;;;2.70;;
5730;SDS011;2890;51.950;7.668;2022-09-30T14:32:37;4.35;;;3.08;;
5730;SDS011;2890;51.950;7.668;2022-09-30T14:35:11;5.07;;;2.90;;
5730;SDS011;2890;51.950;7.668;2022-09-30T14:37:40;5.90;;;2.55;;
5730;SDS011;2890;51.950;7.668;2022-09-30T14:40:12;2.83;;;2.38;;
5730;SDS011;2890;51.950;7.668;2022-09-30T14:42:44;3.25;;;2.95;;
5730;SDS011;2890;51.950;7.668;2022-09-30T14:45:14;2.72;;;2.45;;
5730;SDS011;2890;51.950;7.668;2022-09-30T14:47:46;4.45;;;3.00;;
5730;SDS011;2890;51.950;7.668;2022-09-30T14:50:16;3.50;;;2.83;;
5730;SDS011;2890;51.950;7.668;2022-09-30T14:52:47;2.80;;;2.58;;
5730;SDS011;2890;51.950;7.668;2022-09-30T14:55:20;4.28;;;2.60;;
5730;SDS011;2890;51.950;7.668;2022-09-30T14:57:51;3.63;;;2.67;;
5730;SDS011;2890;51.950;7.668;2022-09-30T15:00:25;5.47;;;2.90;;
5730;SDS011;2890;51.950;7.668;2022-09-30T15:02:55;4.55;;;2.85;;
5730;SDS011;2890;51.950;7.668;2022-09-30T15:05:23;4.45;;;2.78;;
5730;SDS011;2890;51.950;7.668;2022-09-30T15:07:50;3.17;;;2.80;;
5730;SDS011;2890;51.950;7.668;2022-09-30T15:10:18;2.88;;;2.53;;
5730;SDS011;2890;51.950;7.668;2022-09-30T15:12:48;4.32;;;2.38;;
5730;SDS011;2890;51.950;7.668;2022-09-30T15:15:24;3.33;;;3.00;;
5730;SDS011;2890;51.950;7.668;2022-09-30T15:17:57;5.88;;;2.92;;
5730;SDS011;2890;51.950;7.668;2022-09-30T15:20:25;6.70;;;2.88;;
5730;SDS011;2890;51.950;7.668;2022-09-30T15:22:55;4.90;;;3.42;;
5730;SDS011;2890;51.950;7.668;2022-09-30T15:25:25;6.60;;;3.05;;
5730;SDS011;2890;51.950;7.668;2022-09-30T15:27:53;3.13;;;2.83;;
5730;SDS011;2890;51.950;7.668;2022-09-30T15:30:25;3.75;;;3.00;;
5730;SDS011;2890;51.950;7.668;2022-09-30T15:32:57;3.20;;;2.45;;
5730;SDS011;2890;51.950;7.668;2022-09-30T15:35:25;3.63;;;2.60;;
5730;SDS011;2890;51.950;7.668;2022-09-30T15:37:53;2.80;;;2.28;;
5730;SDS011;2890;51.950;7.668;2022-09-30T15:40:32;3.63;;;2.47;;
5730;SDS011;2890;51.950;7.668;2022-09-30T15:43:28;3.28;;;2.60;;
5730;SDS011;2890;51.950;7.668;2022-09-30T15:46:15;4.70;;;2.58;;
5730;SDS011;2890;51.950;7.668;2022-09-30T15:48:47;3.95;;;2.60;;
5730;SDS011;2890;51.950;7.668;2022-09-30T15:51:27;3.30;;;2.55;;
5730;SDS011;2890;51.950;7.668;2022-09-30T15:53:59;3.55;;;2.42;;
5730;SDS011;2890;51.950;7.668;2022-09-30T15:56:31;5.10;;;3.15;;
5730;SDS011;2890;51.950;7.668;2022-09-30T15:58:59;4.85;;;2.78;;
5730;SDS011;2890;51.950;7.668;2022-09-30T16:01:33;3.10;;;2.80;;
5730;SDS011;2890;51.950;7.668;2022-09-30T16:04:03;6.03;;;3.00;;
5730;SDS011;2890;51.950;7.668;2022-09-30T16:06:42;8.30;;;3.30;;
5730;SDS011;2890;51.950;7.668;2022-09-30T16:09:19;5.90;;;3.00;;
5730;SDS011;2890;51.950;7.668;2022-09-30T16:12:05;4.65;;;2.95;;
5730;SDS011;2890;51.950;7.668;2022-09-30T16:14:47;5.72;;;2.90;;
5730;SDS011;2890;51.950;7.668;2022-09-30T16:17:18;4.15;;;2.85;;
5730;SDS011;2890;51.950;7.668;2022-09-30T16:19:48;4.35;;;2.90;;
5730;SDS011;2890;51.950;7.668;2022-09-30T16:22:47;4.65;;;3.20;;